Time;durP1;ratioP1;P1;durP2;ratioP2;P2;SDS_P1;SDS_P2;PMS_P1;PMS_P2;Temp;Humidity;BMP_temperature;BMP_pressure;BME280_temperature;BME280_humidity;BME280_pressure;Samples;Min_cycle;Max_cycle;Signal;HPM_P1;HPM_P2
2023/08/12 00:00:45;;;;;;;16.30;10.73;;;;;;;22.99;77.05;101674.53;5045411;28;20041;-68
2023/08/12 00:03:10;;;;;;;17.38;11.43;;;;;;;23.13;77.33;101674.34;5051557;28;20488;-67
2023/08/12 00:05:36;;;;;;;14.82;10.10;;;;;;;23.18;77.45;101674.81;5038400;28;20056;-68
2023/08/12 00:08:02;;;;;;;16.42;12.00;;;;;;;23.17;77.47;101673.06;5052597;28;20361;-67
2023/08/12 00:10:27;;;;;;;17.38;11.40;;;;;;;23.02;78.45;101671.63;5045890;28;20044;-67
2023/08/12 00:12:52;;;;;;;14.70;11.48;;;;;;;23.04;78.61;101677.75;5049397;28;20025;-67
2023/08/12 00:15:18;;;;;;;12.88;10.40;;;;;;;23.17;77.57;101671.28;5048799;28;20204;-67
2023/08/12 00:17:43;;;;;;;18.35;11.52;;;;;;;23.22;77.86;101668.16;5051629;28;20032;-67
2023/08/12 00:20:10;;;;;;;16.40;11.13;;;;;;;23.17;77.63;101667.69;5053465;28;20075;-68
2023/08/12 00:22:36;;;;;;;14.25;11.50;;;;;;;23.06;78.43;101665.00;5056770;28;20073;-67
2023/08/12 00:25:01;;;;;;;17.85;10.90;;;;;;;23.12;76.93;101659.09;5042546;28;20116;-68
2023/08/12 00:27:27;;;;;;;12.32;10.13;;;;;;;23.21;76.88;101655.66;5045439;28;20245;-68
2023/08/12 00:29:52;;;;;;;15.25;10.60;;;;;;;23.29;77.47;101655.91;5044068;28;20222;-68
2023/08/12 00:32:18;;;;;;;13.95;10.10;;;;;;;23.32;75.90;101655.69;5043302;28;20357;-67
2023/08/12 00:34:43;;;;;;;15.48;11.32;;;;;;;23.33;76.69;101646.59;5049131;28;20131;-68
2023/08/12 00:37:08;;;;;;;15.15;11.48;;;;;;;23.19;77.63;101636.06;5046017;28;20480;-68
2023/08/12 00:39:34;;;;;;;15.40;10.50;;;;;;;23.26;76.35;101642.66;5053796;28;20025;-68
2023/08/12 00:41:59;;;;;;;14.98;11.75;;;;;;;23.21;77.75;101631.38;5055050;28;20081;-68
2023/08/12 00:44:24;;;;;;;15.90;11.50;;;;;;;23.17;77.79;101621.81;5055769;28;20036;-68
2023/08/12 00:46:51;;;;;;;15.85;12.30;;;;;;;23.03;78.68;101630.16;5051621;28;20048;-68
2023/08/12 00:49:16;;;;;;;15.32;11.95;;;;;;;22.90;79.33;101633.88;5050735;28;20373;-69
2023/08/12 00:51:44;;;;;;;16.58;12.95;;;;;;;22.79;79.73;101630.25;5056567;28;20032;-68
2023/08/12 00:54:14;;;;;;;14.70;11.23;;;;;;;22.85;79.04;101625.25;5048596;28;20017;-68
2023/08/12 00:56:40;;;;;;;15.38;10.95;;;;;;;22.98;77.61;101624.28;5040620;28;20022;-68
2023/08/12 00:59:07;;;;;;;17.55;10.85;;;;;;;23.02;77.38;101629.31;5053458;28;20372;-68
2023/08/12 01:01:33;;;;;;;17.10;11.27;;;;;;;23.03;77.05;101622.94;5053930;28;20032;-68
2023/08/12 01:03:59;;;;;;;16.10;10.63;;;;;;;23.00;77.37;101620.50;5057678;28;20021;-68
2023/08/12 01:06:24;;;;;;;17.80;12.10;;;;;;;22.92;77.90;101618.41;5048197;28;20086;-68
2023/08/12 01:08:50;;;;;;;17.27;10.98;;;;;;;23.09;76.79;101617.06;5047900;28;20029;-68
2023/08/12 01:11:57;;;;;;;14.30;11.45;;;;;;;23.15;76.20;101610.31;5051498;28;20055;-68
2023/08/12 01:14:28;;;;;;;16.38;11.07;;;;;;;23.03;77.20;101604.06;5048041;28;20124;-68
2023/08/12 01:16:59;;;;;;;16.90;11.82;;;;;;;23.01;76.99;101606.03;5050740;28;20044;-68
2023/08/12 01:19:34;;;;;;;12.65;11.07;;;;;;;23.05;76.78;101602.09;5047225;28;20028;-68
2023/08/12 01:22:02;;;;;;;15.85;12.98;;;;;;;22.94;78.70;101595.84;5032164;28;20029;-68
2023/08/12 01:24:34;;;;;;;20.20;12.52;;;;;;;22.87;78.38;101590.06;5050308;28;20549;-68
2023/08/12 01:26:59;;;;;;;18.85;13.45;;;;;;;22.81;79.30;101588.72;5048541;28;20024;-68
2023/08/12 01:29:25;;;;;;;14.80;12.27;;;;;;;22.73;79.62;101593.88;5052827;28;20033;-68
2023/08/12 01:32:12;;;;;;;15.65;12.30;;;;;;;22.78;78.41;101586.25;5053539;28;20056;-68
2023/08/12 01:35:14;;;;;;;16.40;12.32;;;;;;;22.75;78.93;101582.94;5051001;28;20025;-68
2023/08/12 01:37:40;;;;;;;18.77;12.52;;;;;;;22.66;80.50;101579.13;5058364;28;20395;-68
2023/08/12 01:40:09;;;;;;;14.52;11.63;;;;;;;22.57;79.54;101577.16;5051365;28;20490;-69
2023/08/12 01:42:34;;;;;;;15.90;11.13;;;;;;;22.60;79.46;101571.56;5055801;28;20025;-68
2023/08/12 01:45:01;;;;;;;18.17;13.07;;;;;;;22.65;80.66;101561.25;5036045;28;20036;-69
2023/08/12 01:47:27;;;;;;;16.15;11.90;;;;;;;22.69;78.61;101569.97;5057714;28;20029;-69
2023/08/12 01:49:52;;;;;;;17.25;12.40;;;;;;;22.70;80.05;101571.69;5034867;28;20171;-68
2023/08/12 01:52:18;;;;;;;18.77;12.80;;;;;;;22.53;81.27;101578.44;5058729;28;20112;-68
2023/08/12 01:54:43;;;;;;;16.75;11.23;;;;;;;22.58;80.16;101577.06;5051365;28;20021;-68
2023/08/12 01:57:08;;;;;;;16.40;12.10;;;;;;;22.55;81.11;101568.38;5052681;28;20024;-68
2023/08/12 01:59:35;;;;;;;21.27;11.10;;;;;;;22.49;80.44;101568.84;5055272;28;20032;-68
2023/08/12 02:02:00;;;;;;;17.63;11.88;;;;;;;22.37;81.40;101560.75;5047267;28;20039;-69
2023/08/12 02:04:26;;;;;;;19.17;12.10;;;;;;;22.29;81.32;101562.31;5030996;28;20513;-68
2023/08/12 02:06:52;;;;;;;12.80;9.82;;;;;;;22.27;81.11;101572.38;5051901;28;20055;-68
2023/08/12 02:09:17;;;;;;;13.65;10.23;;;;;;;22.26;80.31;101563.44;5053649;28;20048;-69
2023/08/12 02:11:43;;;;;;;14.45;9.45;;;;;;;22.34;80.60;101558.31;5049199;28;20063;-68
2023/08/12 02:14:08;;;;;;;16.70;10.90;;;;;;;22.31;80.66;101555.84;5056317;28;20032;-68
2023/08/12 02:16:33;;;;;;;14.07;10.18;;;;;;;22.36;80.26;101555.50;5050269;28;20038;-68
2023/08/12 02:18:58;;;;;;;15.27;9.77;;;;;;;22.37;80.48;101559.88;5050437;28;20525;-68
2023/08/12 02:21:24;;;;;;;14.75;11.00;;;;;;;22.35;80.50;101546.56;5057530;28;20040;-68
2023/08/12 02:23:49;;;;;;;15.13;8.82;;;;;;;22.33;80.53;101553.03;5051327;28;20054;-68
2023/08/12 02:26:15;;;;;;;13.95;8.63;;;;;;;22.28;80.26;101556.06;5050535;28;20677;-68
2023/08/12 02:28:40;;;;;;;10.98;8.60;;;;;;;22.26;80.21;101551.81;5045652;28;20115;-68
2023/08/12 02:31:06;;;;;;;14.45;9.38;;;;;;;22.26;80.55;101552.66;5049209;28;20128;-68
2023/08/12 02:33:31;;;;;;;14.07;8.50;;;;;;;22.28;80.36;101547.13;5052369;28;20037;-68
2023/08/12 02:35:56;;;;;;;13.32;8.82;;;;;;;22.18;80.29;101552.38;5047538;28;20040;-68
2023/08/12 02:38:21;;;;;;;13.30;8.48;;;;;;;22.24;79.83;101541.13;5053901;28;20033;-68
2023/08/12 02:40:49;;;;;;;12.27;8.18;;;;;;;22.12;81.08;101529.50;5053279;28;20437;-68
2023/08/12 02:43:14;;;;;;;12.35;7.88;;;;;;;22.10;80.33;101526.03;5049723;28;20112;-68
2023/08/12 02:45:39;;;;;;;10.32;7.85;;;;;;;22.09;80.25;101531.53;5053251;28;20128;-68
2023/08/12 02:48:05;;;;;;;12.25;8.32;;;;;;;22.25;79.95;101529.41;5052929;28;20408;-68
2023/08/12 02:50:30;;;;;;;13.77;8.07;;;;;;;22.29;79.90;101520.09;5048120;28;20685;-68
2023/08/12 02:52:55;;;;;;;13.93;9.23;;;;;;;22.35;79.47;101518.75;5055022;28;20037;-68
2023/08/12 02:55:21;;;;;;;11.57;8.02;;;;;;;22.41;78.80;101521.81;5049026;28;20028;-68
2023/08/12 02:57:46;;;;;;;11.02;8.75;;;;;;;22.10;80.92;101520.66;5051045;28;20029;-68
2023/08/12 03:00:12;;;;;;;13.07;8.48;;;;;;;22.24;80.09;101511.50;5043161;28;20033;-68
2023/08/12 03:02:37;;;;;;;13.35;8.43;;;;;;;22.40;79.29;101505.78;5043914;28;20032;-68
2023/08/12 03:05:03;;;;;;;11.32;8.68;;;;;;;22.48;78.88;101506.03;5048210;28;20041;-68
2023/08/12 03:07:28;;;;;;;14.50;8.77;;;;;;;22.33;79.96;101512.63;5051025;28;20042;-68
2023/08/12 03:09:53;;;;;;;11.05;7.72;;;;;;;22.09;80.12;101502.75;5045644;28;20338;-68
2023/08/12 03:12:18;;;;;;;13.30;8.98;;;;;;;22.04;80.65;101504.09;5050515;28;20063;-68
2023/08/12 03:14:44;;;;;;;13.85;9.07;;;;;;;22.07;81.00;101503.88;5045670;28;20423;-68
2023/08/12 03:17:09;;;;;;;14.32;9.50;;;;;;;22.11;81.26;101497.28;5048460;28;20041;-68
2023/08/12 03:19:35;;;;;;;13.25;9.48;;;;;;;22.08;81.12;101492.97;5056024;28;20085;-68
2023/08/12 03:22:00;;;;;;;13.82;9.30;;;;;;;21.87;82.38;101498.19;5050438;28;20028;-68
2023/08/12 03:24:25;;;;;;;11.05;8.73;;;;;;;21.89;80.81;101490.00;5057660;28;20082;-68
2023/08/12 03:26:51;;;;;;;14.30;9.02;;;;;;;21.88;81.92;101496.38;5054751;28;20028;-68
2023/08/12 03:29:16;;;;;;;10.52;8.18;;;;;;;21.88;82.12;101485.59;5056000;28;20021;-69
2023/08/12 03:31:41;;;;;;;11.13;8.50;;;;;;;21.91;82.05;101482.66;5057765;28;20074;-69
2023/08/12 03:34:07;;;;;;;11.63;8.18;;;;;;;21.80;81.96;101478.09;5045345;28;20021;-69
2023/08/12 03:36:32;;;;;;;12.48;8.70;;;;;;;21.90;81.78;101480.94;5059206;28;20059;-69
2023/08/12 03:38:57;;;;;;;11.65;8.27;;;;;;;21.83;81.63;101472.50;5048255;28;20031;-69
2023/08/12 03:41:23;;;;;;;11.27;8.05;;;;;;;21.81;82.25;101474.44;5059755;28;20051;-69
2023/08/12 03:43:48;;;;;;;13.80;8.60;;;;;;;21.69;83.37;101469.16;5052087;28;20533;-69
2023/08/12 03:46:13;;;;;;;13.05;8.93;;;;;;;21.69;83.47;101472.72;5052067;28;20087;-69
2023/08/12 03:48:39;;;;;;;10.38;8.40;;;;;;;21.62;83.33;101466.91;5054312;28;20032;-69
2023/08/12 03:51:04;;;;;;;9.70;8.10;;;;;;;21.59;82.93;101463.59;5047103;28;20071;-69
2023/08/12 03:53:29;;;;;;;9.55;6.88;;;;;;;21.60;82.50;101466.19;5049649;28;20055;-69
2023/08/12 03:55:55;;;;;;;8.00;5.43;;;;;;;21.58;81.54;101462.75;5058598;28;20399;-69
2023/08/12 03:58:20;;;;;;;8.73;5.40;;;;;;;21.82;80.81;101464.50;5046989;28;20051;-69
2023/08/12 04:00:45;;;;;;;7.13;5.25;;;;;;;21.78;80.72;101463.06;5047473;28;20021;-69
2023/08/12 04:03:11;;;;;;;8.10;5.07;;;;;;;21.58;80.72;101451.13;5049059;28;20034;-69
2023/08/12 04:05:36;;;;;;;8.35;5.22;;;;;;;21.51;81.35;101453.44;5047447;28;20040;-69
2023/08/12 04:08:01;;;;;;;7.43;5.00;;;;;;;21.40;82.08;101453.38;5048329;28;20045;-69
2023/08/12 04:10:27;;;;;;;7.28;4.97;;;;;;;21.32;82.78;101453.13;5044866;28;20029;-69
2023/08/12 04:12:52;;;;;;;7.93;5.07;;;;;;;21.38;82.30;101453.50;5044968;28;20052;-69
2023/08/12 04:15:17;;;;;;;8.52;4.82;;;;;;;21.50;81.92;101456.25;5048425;28;20025;-69
2023/08/12 04:17:43;;;;;;;7.45;5.13;;;;;;;21.37;82.76;101450.94;5047894;28;20025;-69
2023/08/12 04:20:08;;;;;;;6.60;5.20;;;;;;;21.36;83.70;101447.41;5052214;28;20039;-69
2023/08/12 04:22:34;;;;;;;7.95;5.35;;;;;;;21.38;82.69;101436.50;5050541;28;20491;-69
2023/08/12 04:24:59;;;;;;;6.65;4.85;;;;;;;21.37;82.64;101427.59;5057807;28;20712;-69
2023/08/12 04:27:24;;;;;;;9.13;4.97;;;;;;;21.36;83.03;101433.09;5049838;28;20545;-70
2023/08/12 04:29:50;;;;;;;8.88;5.30;;;;;;;21.35;84.30;101436.72;5041373;28;20706;-69
2023/08/12 04:32:15;;;;;;;9.70;5.78;;;;;;;21.24;84.14;101434.84;5046800;28;20033;-69
2023/08/12 04:34:40;;;;;;;8.93;5.95;;;;;;;21.21;85.47;101440.44;5046066;28;20020;-69
2023/08/12 04:37:09;;;;;;;12.32;6.40;;;;;;;21.15;86.20;101443.59;5047679;28;20039;-69
2023/08/12 04:39:34;;;;;;;12.35;5.78;;;;;;;21.13;85.89;101443.72;5049310;28;20029;-69
2023/08/12 04:41:59;;;;;;;14.35;6.53;;;;;;;21.12;86.17;101446.50;5055691;28;20350;-68
2023/08/12 04:44:24;;;;;;;9.40;5.90;;;;;;;21.09;86.79;101441.38;5049043;28;20510;-69
2023/08/12 04:46:50;;;;;;;11.98;6.10;;;;;;;21.09;87.25;101441.38;5054007;28;20106;-69
2023/08/12 04:49:15;;;;;;;10.13;6.35;;;;;;;21.11;85.80;101434.03;5025819;28;20530;-69
2023/08/12 04:51:41;;;;;;;8.50;5.90;;;;;;;21.22;85.47;101422.50;5063011;28;20055;-69
2023/08/12 04:54:07;;;;;;;10.35;6.72;;;;;;;21.18;86.45;101421.00;5054763;28;20111;-69
2023/08/12 04:56:33;;;;;;;8.88;5.88;;;;;;;21.08;87.59;101428.91;5056764;28;20039;-69
2023/08/12 04:58:58;;;;;;;15.40;8.27;;;;;;;20.84;89.28;101443.22;5049560;28;20067;-71
2023/08/12 05:01:23;;;;;;;16.20;7.65;;;;;;;20.70;90.66;101431.72;5048484;28;20024;-70
2023/08/12 05:03:48;;;;;;;10.93;7.88;;;;;;;20.67;91.45;101413.16;5048729;28;20125;-71
2023/08/12 05:06:14;;;;;;;11.50;7.25;;;;;;;20.59;91.73;101416.41;5048176;28;20034;-70
2023/08/12 05:08:39;;;;;;;9.70;7.15;;;;;;;20.58;92.91;101402.13;5043761;28;20453;-70
2023/08/12 05:11:04;;;;;;;10.98;7.38;;;;;;;20.57;92.10;101402.25;5057243;28;20061;-69
2023/08/12 05:13:30;;;;;;;11.63;7.13;;;;;;;20.76;91.35;101404.44;5046078;28;20029;-69
2023/08/12 05:15:55;;;;;;;11.73;8.10;;;;;;;20.58;92.50;101404.81;5048956;28;20382;-70
2023/08/12 05:18:23;;;;;;;11.48;7.78;;;;;;;20.57;93.20;101408.47;5050486;28;20659;-70
2023/08/12 05:20:50;;;;;;;11.50;7.68;;;;;;;20.60;93.16;101397.47;5054179;28;20021;-70
2023/08/12 05:23:16;;;;;;;11.20;8.20;;;;;;;20.51;92.82;101392.78;5047943;28;20460;-69
2023/08/12 05:25:41;;;;;;;12.77;7.57;;;;;;;20.55;92.63;101394.28;5050514;28;20041;-70
2023/08/12 05:28:07;;;;;;;11.77;7.60;;;;;;;20.58;92.48;101404.81;5053345;28;20025;-70
2023/08/12 05:30:32;;;;;;;8.98;7.63;;;;;;;20.48;93.23;101409.13;5050261;28;20036;-70
2023/08/12 05:32:58;;;;;;;10.85;7.38;;;;;;;20.45;93.94;101395.88;5054512;28;20086;-70
2023/08/12 05:35:24;;;;;;;13.18;8.02;;;;;;;20.43;93.39;101380.88;5058787;28;20395;-70
2023/08/12 05:37:49;;;;;;;8.57;6.40;;;;;;;20.39;93.20;101407.94;5059291;28;20035;-70
2023/08/12 05:40:15;;;;;;;8.13;6.65;;;;;;;20.43;93.31;101394.31;5055497;28;20033;-70
2023/08/12 05:42:40;;;;;;;10.30;7.03;;;;;;;20.42;93.98;101390.72;5062973;28;20456;-70
2023/08/12 05:45:06;;;;;;;8.43;7.22;;;;;;;20.47;94.39;101403.81;5052468;28;20039;-70
2023/08/12 05:47:32;;;;;;;7.93;6.20;;;;;;;20.44;94.00;101399.56;5059343;28;20491;-70
2023/08/12 05:49:57;;;;;;;7.55;6.32;;;;;;;20.46;94.07;101399.44;5055439;28;20103;-71
2023/08/12 05:52:22;;;;;;;7.30;5.88;;;;;;;20.50;93.65;101395.59;5063698;28;20112;-71
2023/08/12 05:54:48;;;;;;;8.98;5.97;;;;;;;20.49;92.75;101394.72;5055285;28;20543;-71
2023/08/12 05:57:13;;;;;;;7.35;5.80;;;;;;;20.54;92.88;101389.88;5056342;28;20060;-70
2023/08/12 05:59:38;;;;;;;5.85;4.70;;;;;;;20.52;92.38;101381.09;5050709;28;20021;-70
2023/08/12 06:02:04;;;;;;;6.50;5.10;;;;;;;20.55;92.28;101383.53;5052723;28;20060;-70
2023/08/12 06:04:29;;;;;;;7.07;5.38;;;;;;;20.54;92.13;101383.66;5052708;28;20033;-70
2023/08/12 06:06:54;;;;;;;6.38;4.60;;;;;;;20.60;91.94;101381.34;5055831;28;20025;-71
2023/08/12 06:09:21;;;;;;;6.97;5.13;;;;;;;20.60;91.69;101385.88;5049116;28;20029;-69
2023/08/12 06:11:46;;;;;;;7.35;5.00;;;;;;;20.62;92.08;101379.44;5045058;28;20480;-69
2023/08/12 06:14:11;;;;;;;9.07;5.18;;;;;;;20.69;90.63;101381.66;5046220;28;20029;-69
2023/08/12 06:16:37;;;;;;;6.75;4.93;;;;;;;20.73;90.75;101380.47;5046651;28;20415;-69
2023/08/12 06:19:02;;;;;;;6.53;4.70;;;;;;;20.90;89.99;101382.75;5042241;28;20060;-70
2023/08/12 06:21:27;;;;;;;6.10;5.20;;;;;;;20.98;88.90;101374.09;5049436;28;20111;-70
2023/08/12 06:23:52;;;;;;;6.72;4.80;;;;;;;21.04;89.27;101373.66;5051850;28;20017;-70
2023/08/12 06:26:18;;;;;;;6.78;4.78;;;;;;;21.05;88.81;101369.97;5052911;28;20040;-71
2023/08/12 06:28:43;;;;;;;5.10;4.55;;;;;;;21.02;88.71;101360.31;5044779;28;20261;-70
2023/08/12 06:31:08;;;;;;;4.35;3.95;;;;;;;21.15;88.27;101360.25;5050742;28;20490;-70
2023/08/12 06:33:33;;;;;;;5.68;4.75;;;;;;;21.15;87.76;101361.09;5051640;28;20051;-70
2023/08/12 06:35:59;;;;;;;5.57;4.25;;;;;;;21.26;87.88;101354.03;5053317;28;20052;-70
2023/08/12 06:38:24;;;;;;;4.88;4.38;;;;;;;21.01;88.47;101355.06;5035840;28;20032;-70
2023/08/12 06:40:49;;;;;;;5.07;4.35;;;;;;;21.11;88.30;101350.69;5053335;28;20114;-70
2023/08/12 06:43:15;;;;;;;4.75;3.78;;;;;;;21.12;87.78;101355.09;5052253;28;20553;-70
2023/08/12 06:45:40;;;;;;;4.65;3.97;;;;;;;21.18;87.80;101353.78;5049347;28;20044;-69
2023/08/12 06:48:05;;;;;;;4.32;3.92;;;;;;;21.18;88.36;101349.25;5031114;28;20033;-70
2023/08/12 06:50:33;;;;;;;4.07;3.67;;;;;;;21.27;88.42;101348.56;5051169;28;20033;-70
2023/08/12 06:52:58;;;;;;;8.02;4.45;;;;;;;21.30;87.73;101339.38;5052760;28;20023;-70
2023/08/12 06:55:23;;;;;;;4.20;3.50;;;;;;;21.32;88.05;101346.41;5049910;28;20024;-69
2023/08/12 06:57:51;;;;;;;3.85;3.55;;;;;;;21.36;87.13;101345.19;5055926;28;20458;-70
2023/08/12 07:00:17;;;;;;;3.85;3.40;;;;;;;21.43;87.56;101337.47;5048463;28;20042;-70
2023/08/12 07:02:42;;;;;;;5.18;3.17;;;;;;;21.49;87.36;101333.44;5050976;28;20029;-69
2023/08/12 07:05:08;;;;;;;4.38;3.35;;;;;;;21.40;87.89;101329.63;5049609;28;20106;-69
2023/08/12 07:07:33;;;;;;;3.70;3.40;;;;;;;21.36;86.74;101334.44;5059259;28;20036;-70
2023/08/12 07:09:58;;;;;;;4.32;3.58;;;;;;;21.38;87.78;101326.22;5051111;28;20111;-69
2023/08/12 07:12:24;;;;;;;5.53;3.70;;;;;;;21.43;88.21;101333.94;5057816;28;20480;-70
2023/08/12 07:14:49;;;;;;;3.17;2.97;;;;;;;21.49;87.51;101334.31;5051085;28;20031;-69
2023/08/12 07:17:14;;;;;;;3.75;3.25;;;;;;;21.55;86.80;101324.91;5054380;28;20059;-69
2023/08/12 07:19:39;;;;;;;4.07;3.67;;;;;;;21.44;88.50;101328.44;5050686;28;20043;-69
2023/08/12 07:22:05;;;;;;;4.47;3.53;;;;;;;21.41;89.14;101328.69;5054073;28;20032;-69
2023/08/12 07:24:30;;;;;;;4.75;3.53;;;;;;;21.40;89.47;101326.94;5053910;28;20032;-70
2023/08/12 07:26:55;;;;;;;4.63;4.22;;;;;;;21.37;89.74;101328.06;5044025;28;20017;-69
2023/08/12 07:29:21;;;;;;;4.50;3.53;;;;;;;21.39;89.81;101326.09;5046957;28;20492;-70
2023/08/12 07:31:46;;;;;;;4.30;3.88;;;;;;;21.37;89.26;101321.81;5055317;28;20055;-69
2023/08/12 07:34:13;;;;;;;4.13;3.83;;;;;;;21.42;89.64;101325.00;5048320;28;20111;-70
2023/08/12 07:36:39;;;;;;;5.13;3.55;;;;;;;21.42;89.84;101329.53;5053195;28;20376;-69
2023/08/12 07:39:05;;;;;;;4.18;3.88;;;;;;;21.53;89.67;101327.72;5051462;28;20115;-69
2023/08/12 07:41:30;;;;;;;4.18;3.80;;;;;;;21.53;89.50;101333.09;5051388;28;20617;-70
2023/08/12 07:43:55;;;;;;;4.68;4.28;;;;;;;21.45;90.56;101334.66;5058657;28;20036;-70
2023/08/12 07:46:20;;;;;;;4.55;4.13;;;;;;;21.45;89.98;101326.59;5048626;28;20594;-70
2023/08/12 07:48:46;;;;;;;4.22;3.92;;;;;;;21.65;89.47;101326.75;5052821;28;20043;-69
2023/08/12 07:51:11;;;;;;;4.60;4.20;;;;;;;21.73;89.23;101319.88;5048585;28;20490;-70
2023/08/12 07:53:36;;;;;;;4.50;4.20;;;;;;;21.82;88.44;101316.47;5043637;28;20087;-70
2023/08/12 07:56:01;;;;;;;5.20;4.07;;;;;;;21.78;89.62;101325.78;5050906;28;20075;-69
2023/08/12 07:58:27;;;;;;;4.53;4.03;;;;;;;21.76;89.78;101325.03;5054782;28;20403;-69
2023/08/12 08:00:53;;;;;;;3.88;3.45;;;;;;;21.67;90.13;101321.25;5051328;28;20029;-70
2023/08/12 08:03:19;;;;;;;3.78;3.40;;;;;;;21.65;90.05;101328.59;5052218;28;20128;-69
2023/08/12 08:05:45;;;;;;;4.30;3.90;;;;;;;21.67;90.84;101329.31;5047709;28;20574;-69
2023/08/12 08:08:10;;;;;;;3.83;3.53;;;;;;;21.76;91.13;101333.13;5059995;28;20518;-71
2023/08/12 08:10:36;;;;;;;3.60;3.30;;;;;;;21.86;89.75;101337.63;5054393;28;20100;-71
2023/08/12 08:13:01;;;;;;;3.15;2.95;;;;;;;22.01;89.74;101338.25;5051973;28;20542;-71
2023/08/12 08:15:26;;;;;;;3.15;2.95;;;;;;;22.08;89.73;101344.84;5046309;28;20037;-71
2023/08/12 08:17:51;;;;;;;3.80;3.00;;;;;;;22.24;89.07;101349.88;5048441;28;20037;-70
2023/08/12 08:20:17;;;;;;;3.13;2.85;;;;;;;22.31;87.96;101351.09;5053706;28;20028;-71
2023/08/12 08:22:42;;;;;;;2.60;2.47;;;;;;;22.28;87.89;101347.78;5048988;28;20025;-71
2023/08/12 08:25:07;;;;;;;2.28;2.17;;;;;;;22.32;86.68;101355.50;5047379;28;20488;-71
2023/08/12 08:27:33;;;;;;;3.17;2.50;;;;;;;22.34;86.06;101355.41;5043341;28;20131;-71
2023/08/12 08:29:58;;;;;;;2.45;2.28;;;;;;;22.28;86.37;101345.94;5050958;28;20017;-71
2023/08/12 08:32:23;;;;;;;2.55;2.35;;;;;;;22.32;85.35;101354.66;5045400;28;20155;-71
2023/08/12 08:34:48;;;;;;;2.95;2.75;;;;;;;22.38;85.26;101355.03;5054062;28;20036;-72
2023/08/12 08:37:14;;;;;;;3.17;2.97;;;;;;;22.46;84.65;101359.75;5053701;28;20020;-71
2023/08/12 08:39:39;;;;;;;3.67;3.40;;;;;;;22.55;84.32;101360.84;5052210;28;20036;-71
2023/08/12 08:42:06;;;;;;;3.83;3.53;;;;;;;22.74;83.80;101361.03;5054130;28;20029;-71
2023/08/12 08:44:33;;;;;;;4.45;3.92;;;;;;;22.98;83.31;101363.53;5050028;28;20035;-70
2023/08/12 08:46:59;;;;;;;5.00;4.60;;;;;;;23.16;81.80;101366.53;5047170;28;20041;-70
2023/08/12 08:49:25;;;;;;;4.93;4.57;;;;;;;23.15;81.86;101372.94;5052583;28;20491;-70
2023/08/12 08:51:52;;;;;;;5.10;4.70;;;;;;;23.12;83.00;101375.88;5049940;28;20039;-70
2023/08/12 08:54:18;;;;;;;6.38;5.88;;;;;;;23.04;80.88;101375.69;5047601;28;20063;-70
2023/08/12 08:56:44;;;;;;;6.53;6.03;;;;;;;23.01;81.19;101381.31;5050729;28;20477;-70
2023/08/12 08:59:09;;;;;;;6.55;6.05;;;;;;;23.10;81.04;101385.94;5053729;28;20038;-70
2023/08/12 09:01:36;;;;;;;6.78;6.28;;;;;;;23.36;79.67;101381.91;5044876;28;20056;-70
2023/08/12 09:04:03;;;;;;;6.97;6.45;;;;;;;23.44;80.69;101375.81;5055213;28;20456;-70
2023/08/12 09:06:29;;;;;;;6.63;6.13;;;;;;;23.75;78.42;101359.72;5033297;28;20493;-70
2023/08/12 09:08:55;;;;;;;6.82;6.32;;;;;;;24.19;78.43;101369.28;5055797;28;20561;-69
2023/08/12 09:11:20;;;;;;;6.63;6.13;;;;;;;24.47;75.02;101377.63;5046329;28;20021;-70
2023/08/12 09:13:47;;;;;;;6.57;6.07;;;;;;;24.67;75.79;101376.69;5047336;28;20376;-70
2023/08/12 09:16:13;;;;;;;6.00;5.40;;;;;;;24.58;73.87;101377.53;5047294;28;20040;-70
2023/08/12 09:18:40;;;;;;;5.93;5.43;;;;;;;24.19;74.54;101385.47;5052974;28;20025;-70
2023/08/12 09:21:05;;;;;;;6.00;5.60;;;;;;;23.87;77.45;101389.16;5052159;28;20033;-70
2023/08/12 09:23:37;;;;;;;5.30;4.80;;;;;;;23.51;76.44;101397.75;5051542;28;20039;-70
2023/08/12 09:26:02;;;;;;;4.90;4.50;;;;;;;23.29;77.73;101404.97;5048083;28;20376;-70
2023/08/12 09:28:28;;;;;;;4.88;4.47;;;;;;;23.16;79.05;101410.53;5026618;28;20033;-70
2023/08/12 09:30:53;;;;;;;4.63;4.30;;;;;;;23.30;79.23;101420.19;5056761;28;20021;-69
2023/08/12 09:33:26;;;;;;;4.38;3.50;;;;;;;23.51;77.36;101414.81;5049020;28;20025;-70
2023/08/12 09:35:51;;;;;;;3.90;3.60;;;;;;;23.71;76.98;101418.53;5038737;28;20116;-70
2023/08/12 09:38:17;;;;;;;3.42;3.22;;;;;;;23.90;75.99;101406.97;5049998;28;20107;-70
2023/08/12 09:40:42;;;;;;;3.00;2.80;;;;;;;23.88;74.26;101411.66;5051611;28;20044;-71
2023/08/12 09:43:08;;;;;;;2.83;2.63;;;;;;;23.72;73.45;101413.97;5054534;28;20036;-70
2023/08/12 09:45:34;;;;;;;3.17;2.88;;;;;;;23.57;74.78;101416.13;5052449;28;20057;-70
2023/08/12 09:48:00;;;;;;;2.55;2.40;;;;;;;23.37;74.79;101415.97;5051043;28;20032;-70
2023/08/12 09:50:27;;;;;;;2.97;2.78;;;;;;;23.15;75.21;101421.47;5060044;28;20037;-71
2023/08/12 09:52:54;;;;;;;3.28;3.00;;;;;;;23.08;76.33;101412.16;5056351;28;20021;-70
2023/08/12 09:55:24;;;;;;;3.20;2.90;;;;;;;23.02;74.66;101426.19;5056091;28;20029;-71
2023/08/12 09:57:54;;;;;;;3.03;2.80;;;;;;;22.89;75.15;101421.78;5054897;28;20107;-71
2023/08/12 10:00:21;;;;;;;3.17;2.88;;;;;;;22.87;75.98;101421.06;5048197;28;20041;-71
2023/08/12 10:02:48;;;;;;;2.85;2.65;;;;;;;22.86;75.26;101427.44;5049395;28;20111;-70
2023/08/12 10:05:25;;;;;;;3.40;3.10;;;;;;;22.83;76.46;101432.22;5054320;28;20031;-70
2023/08/12 10:07:51;;;;;;;2.60;2.35;;;;;;;22.92;75.78;101435.03;5051918;28;20056;-69
2023/08/12 10:10:17;;;;;;;2.92;2.70;;;;;;;22.99;74.96;101430.00;5050945;28;20472;-69
2023/08/12 10:12:42;;;;;;;2.50;2.30;;;;;;;23.11;75.40;101433.50;5055284;28;20021;-69
2023/08/12 10:15:09;;;;;;;2.70;2.40;;;;;;;23.20;74.86;101440.81;5050665;28;20021;-69
2023/08/12 10:17:35;;;;;;;2.55;2.17;;;;;;;23.30;73.80;101428.28;5050362;28;20518;-69
2023/08/12 10:20:04;;;;;;;2.72;2.33;;;;;;;23.50;74.32;101439.22;5048464;28;20395;-69
2023/08/12 10:22:30;;;;;;;2.83;2.10;;;;;;;23.57;72.73;101430.47;5049352;28;20021;-68
2023/08/12 10:24:58;;;;;;;3.00;2.70;;;;;;;23.57;72.53;101437.72;5052726;28;20480;-68
2023/08/12 10:27:25;;;;;;;3.63;3.17;;;;;;;23.72;71.55;101433.72;5051901;28;20028;-69
2023/08/12 10:29:51;;;;;;;3.58;2.67;;;;;;;24.02;71.38;101432.91;5048734;28;20108;-68
2023/08/12 10:32:16;;;;;;;4.43;2.50;;;;;;;24.37;70.04;101437.94;5046078;28;20210;-68
2023/08/12 10:34:42;;;;;;;4.05;2.10;;;;;;;24.59;67.54;101427.91;5050422;28;20039;-68
2023/08/12 10:37:11;;;;;;;3.90;1.80;;;;;;;24.63;67.32;101426.63;5058544;28;20490;-68
2023/08/12 10:39:36;;;;;;;3.05;1.70;;;;;;;24.84;65.81;101416.56;5049961;28;20202;-65
2023/08/12 10:42:02;;;;;;;3.28;1.70;;;;;;;24.93;65.99;101418.41;5048258;28;20055;-65
2023/08/12 10:44:54;;;;;;;5.53;2.10;;;;;;;25.26;66.46;101420.88;5048301;28;20036;-65
2023/08/12 10:47:19;;;;;;;3.03;1.40;;;;;;;25.22;62.80;101433.84;5042831;28;20067;-65
2023/08/12 10:49:49;;;;;;;3.70;1.50;;;;;;;25.41;64.83;101431.16;5045712;28;20033;-65
2023/08/12 10:52:28;;;;;;;4.28;1.70;;;;;;;25.35;63.56;101433.56;5047135;28;20047;-65
2023/08/12 10:54:53;;;;;;;4.90;1.60;;;;;;;25.24;65.03;101431.88;5041687;28;20024;-66
2023/08/12 10:57:35;;;;;;;3.63;1.63;;;;;;;25.29;65.20;101428.72;5050164;28;20480;-66
2023/08/12 11:00:03;;;;;;;5.57;1.55;;;;;;;25.29;64.12;101440.41;5050688;28;20020;-66
2023/08/12 11:02:32;;;;;;;4.85;1.65;;;;;;;25.04;62.16;101432.81;5049594;28;20063;-65
2023/08/12 11:05:03;;;;;;;4.20;1.30;;;;;;;25.02;61.80;101432.94;5051527;28;20037;-66
2023/08/12 11:07:58;;;;;;;4.20;1.53;;;;;;;25.10;63.31;101435.00;5049491;28;20028;-65
2023/08/12 11:10:25;;;;;;;4.28;1.40;;;;;;;24.73;61.33;101438.31;5046921;28;20295;-65
2023/08/12 11:12:56;;;;;;;6.03;1.67;;;;;;;24.68;61.67;101446.84;5046461;28;20406;-66
2023/08/12 11:15:34;;;;;;;3.65;1.55;;;;;;;24.73;63.17;101449.16;5045687;28;20045;-66